createdAt,value
2023-10-17T00:00:13.361Z,-0.42
2023-10-17T00:01:15.040Z,-0.42
2023-10-17T00:02:23.430Z,-0.43
2023-10-17T00:03:26.066Z,-0.41
2023-10-17T00:04:29.685Z,-0.35
2023-10-17T00:05:32.345Z,-0.35
2023-10-17T00:06:33.895Z,-0.37
2023-10-17T00:07:36.151Z,-0.35
2023-10-17T00:08:37.564Z,-0.36
2023-10-17T00:09:39.894Z,-0.38
2023-10-17T00:10:50.662Z,-0.42
2023-10-17T00:11:57.061Z,-0.46
2023-10-17T00:13:17.928Z,-0.47
2023-10-17T00:14:19.449Z,-0.52
2023-10-17T00:15:30.639Z,-0.54
2023-10-17T00:16:34.188Z,-0.56
2023-10-17T00:17:35.682Z,-0.55
2023-10-17T00:18:37.208Z,-0.56
2023-10-17T00:19:38.663Z,-0.57
2023-10-17T00:20:40.321Z,-0.58
2023-10-17T00:21:41.780Z,-0.60
2023-10-17T00:22:43.726Z,-0.63
2023-10-17T00:23:45.212Z,-0.64
2023-10-17T00:24:48.190Z,-0.66
2023-10-17T00:25:53.255Z,-0.66
2023-10-17T00:26:54.804Z,-0.66
2023-10-17T00:27:56.336Z,-0.63
2023-10-17T00:28:57.820Z,-0.64
2023-10-17T00:30:00.753Z,-0.67
2023-10-17T00:31:05.307Z,-0.72
2023-10-17T00:32:10.158Z,-0.75
2023-10-17T00:33:11.936Z,-0.78
2023-10-17T00:34:14.599Z,-0.79
2023-10-17T00:35:16.238Z,-0.79
2023-10-17T00:36:17.904Z,-0.82
2023-10-17T00:37:21.231Z,-0.86
2023-10-17T00:38:23.509Z,-0.90
2023-10-17T00:39:31.361Z,-0.93
2023-10-17T00:40:36.024Z,-0.92
2023-10-17T00:41:56.653Z,-0.89
2023-10-17T00:42:59.754Z,-0.79
2023-10-17T00:44:01.231Z,-0.76
2023-10-17T00:45:02.730Z,-0.69
2023-10-17T00:46:08.198Z,-0.73
2023-10-17T00:47:13.043Z,-0.80
2023-10-17T00:48:19.825Z,-0.83
2023-10-17T00:49:22.718Z,-0.87
2023-10-17T00:50:24.900Z,-0.90
2023-10-17T00:51:26.836Z,-0.93
2023-10-17T00:52:33.294Z,-0.94
2023-10-17T00:53:41.640Z,-0.97
2023-10-17T00:54:44.395Z,-1.00
2023-10-17T00:55:52.592Z,-1.00
2023-10-17T00:56:57.923Z,-0.99
2023-10-17T00:57:59.678Z,-0.99
2023-10-17T00:59:01.279Z,-1.00
2023-10-17T01:00:24.912Z,-0.98
2023-10-17T01:01:28.736Z,-1.00
2023-10-17T01:02:33.150Z,-1.01
2023-10-17T01:03:34.782Z,-1.03
2023-10-17T01:04:41.877Z,-1.04
2023-10-17T01:06:11.840Z,-1.11
2023-10-17T01:07:24.689Z,-1.18
2023-10-17T01:08:40.562Z,-1.18
2023-10-17T01:09:42.047Z,-1.22
2023-10-17T01:10:45.502Z,-1.23
2023-10-17T01:11:47.798Z,-1.23
2023-10-17T01:12:55.430Z,-1.22
2023-10-17T01:13:58.943Z,-1.20
2023-10-17T01:15:00.556Z,-1.20
2023-10-17T01:16:07.166Z,-1.18
2023-10-17T01:17:08.955Z,-1.17
2023-10-17T01:18:10.441Z,-1.15
2023-10-17T01:19:12.772Z,-1.16
2023-10-17T01:20:20.333Z,-1.16
2023-10-17T01:21:23.178Z,-1.11
2023-10-17T01:22:25.516Z,-1.12
2023-10-17T01:23:30.879Z,-1.12
2023-10-17T01:24:34.469Z,-1.11
2023-10-17T01:25:38.641Z,-1.11
2023-10-17T01:26:40.173Z,-1.08
2023-10-17T01:27:42.004Z,-1.08
2023-10-17T01:28:48.329Z,-1.08
2023-10-17T01:29:49.958Z,-1.06
2023-10-17T01:30:56.915Z,-1.07
2023-10-17T01:32:00.596Z,-1.09
2023-10-17T01:33:03.840Z,-1.07
2023-10-17T01:34:09.296Z,-1.04
2023-10-17T01:35:12.295Z,-1.03
2023-10-17T01:36:17.696Z,-0.99
2023-10-17T01:37:21.134Z,-1.04
2023-10-17T01:38:26.046Z,-1.01
2023-10-17T01:39:27.583Z,-1.05
2023-10-17T01:40:29.310Z,-1.09
2023-10-17T01:41:30.824Z,-1.15
2023-10-17T01:42:34.647Z,-1.17
2023-10-17T01:43:56.112Z,-1.16
2023-10-17T01:44:59.360Z,-1.13
2023-10-17T01:46:02.654Z,-1.09
2023-10-17T01:47:08.951Z,-1.07
2023-10-17T01:48:12.664Z,-1.09
2023-10-17T01:49:14.359Z,-1.08
2023-10-17T01:50:16.128Z,-1.09
2023-10-17T01:51:20.354Z,-0.98
2023-10-17T01:52:22.785Z,-1.05
2023-10-17T01:53:24.515Z,-1.09
2023-10-17T01:54:27.246Z,-1.12
2023-10-17T01:55:29.643Z,-1.09
2023-10-17T01:56:34.067Z,-1.10
2023-10-17T01:57:36.894Z,-1.16
2023-10-17T01:58:39.226Z,-1.20
2023-10-17T01:59:40.680Z,-1.22
2023-10-17T02:00:43.717Z,-1.23
2023-10-17T02:01:45.839Z,-1.28
2023-10-17T02:02:48.381Z,-1.31
2023-10-17T02:03:49.836Z,-1.29
2023-10-17T02:04:52.130Z,-1.24
2023-10-17T02:05:53.874Z,-1.25
2023-10-17T02:06:56.155Z,-1.26
2023-10-17T02:07:57.944Z,-1.29
2023-10-17T02:09:00.622Z,-1.29
2023-10-17T02:11:04.948Z,-1.27
2023-10-17T02:12:06.838Z,-1.26
2023-10-17T02:13:08.596Z,-1.30
2023-10-17T02:14:10.406Z,-1.30
2023-10-17T02:15:13.794Z,-1.29
2023-10-17T02:16:17.014Z,-1.25
2023-10-17T02:17:19.426Z,-1.23
2023-10-17T02:18:20.942Z,-1.20
2023-10-17T02:19:27.130Z,-1.13
2023-10-17T02:20:28.772Z,-1.17
2023-10-17T02:21:30.337Z,-1.17
2023-10-17T02:22:32.440Z,-1.17
2023-10-17T02:23:40.923Z,-1.18
2023-10-17T02:24:42.438Z,-1.18
2023-10-17T02:25:43.946Z,-1.16
2023-10-17T02:27:13.245Z,-1.14
2023-10-17T02:28:15.032Z,-1.13
2023-10-17T02:29:16.534Z,-1.11
2023-10-17T02:30:18.450Z,-1.12
2023-10-17T02:31:28.889Z,-1.11
2023-10-17T02:32:30.524Z,-1.11
2023-10-17T02:33:32.098Z,-1.07
2023-10-17T02:34:35.170Z,-1.06
2023-10-17T02:35:43.162Z,-1.04
2023-10-17T02:36:44.815Z,-0.96
2023-10-17T02:37:46.261Z,-0.93
2023-10-17T02:38:47.916Z,-0.91
2023-10-17T02:39:49.370Z,-0.94
2023-10-17T02:40:54.326Z,-0.86
2023-10-17T02:42:08.443Z,-0.86
2023-10-17T02:43:14.054Z,-0.87
2023-10-17T02:44:20.313Z,-0.84
2023-10-17T02:45:27.719Z,-0.89
2023-10-17T02:46:29.485Z,-0.89
2023-10-17T02:47:31.463Z,-0.86
2023-10-17T02:48:40.037Z,-0.89
2023-10-17T02:49:44.493Z,-0.88
2023-10-17T02:51:02.391Z,-0.88
2023-10-17T02:52:07.163Z,-0.83
2023-10-17T02:53:13.325Z,-0.81
2023-10-17T02:54:16.250Z,-0.78
2023-10-17T02:55:24.922Z,-0.76
2023-10-17T02:56:27.722Z,-0.77
2023-10-17T02:57:34.049Z,-0.77
2023-10-17T02:58:35.669Z,-0.79
2023-10-17T02:59:37.113Z,-0.80
2023-10-17T03:00:45.212Z,-0.80
2023-10-17T03:01:54.116Z,-0.80
2023-10-17T03:02:59.230Z,-0.84
2023-10-17T03:04:11.258Z,-0.84
2023-10-17T03:05:13.515Z,-0.88
2023-10-17T03:06:17.540Z,-0.87
2023-10-17T03:07:19.119Z,-0.89
2023-10-17T03:08:20.560Z,-0.91
2023-10-17T03:09:22.110Z,-0.94
2023-10-17T03:10:38.883Z,-0.97
2023-10-17T03:11:49.622Z,-0.98
2023-10-17T03:13:02.394Z,-1.02
2023-10-17T03:14:13.826Z,-1.05
2023-10-17T03:15:15.430Z,-1.07
2023-10-17T03:16:29.067Z,-1.09
2023-10-17T03:17:30.602Z,-1.08
2023-10-17T03:18:38.927Z,-1.09
2023-10-17T03:19:40.475Z,-1.05
2023-10-17T03:20:42.673Z,-1.04
2023-10-17T03:21:45.238Z,-1.03
2023-10-17T03:22:46.873Z,-1.03
2023-10-17T03:23:50.643Z,-1.01
2023-10-17T03:25:01.881Z,-1.02
2023-10-17T03:26:03.514Z,-1.01
2023-10-17T03:27:07.315Z,-1.00
2023-10-17T03:28:16.790Z,-0.99
2023-10-17T03:29:24.463Z,-1.01
2023-10-17T03:30:26.348Z,-1.05
2023-10-17T03:31:27.843Z,-1.07
2023-10-17T03:32:29.439Z,-1.07
2023-10-17T03:33:33.759Z,-1.09
2023-10-17T03:34:36.707Z,-1.15
2023-10-17T03:35:46.966Z,-1.15
2023-10-17T03:36:51.616Z,-1.16
2023-10-17T03:37:55.593Z,-1.21
2023-10-17T03:39:04.028Z,-1.21
2023-10-17T03:40:20.243Z,-1.24
2023-10-17T03:41:25.994Z,-1.27
2023-10-17T03:42:38.254Z,-1.29
2023-10-17T03:43:39.658Z,-1.28
2023-10-17T03:44:41.143Z,-1.24
2023-10-17T03:45:53.206Z,-1.22
2023-10-17T03:46:55.132Z,-1.18
2023-10-17T03:48:01.252Z,-1.16
2023-10-17T03:49:05.098Z,-1.11
2023-10-17T03:50:10.311Z,-1.03
2023-10-17T03:51:12.402Z,-1.01
2023-10-17T03:52:17.330Z,-1.01
2023-10-17T03:53:31.058Z,-0.92
2023-10-17T03:54:32.616Z,-0.93
2023-10-17T03:55:43.884Z,-0.93
2023-10-17T03:56:51.102Z,-0.92
2023-10-17T03:57:55.270Z,-0.92
2023-10-17T03:59:17.361Z,-0.91
2023-10-17T04:00:26.516Z,-0.89
2023-10-17T04:01:28.601Z,-0.89
2023-10-17T04:02:33.002Z,-0.88
2023-10-17T04:03:35.599Z,-0.87
2023-10-17T04:04:38.401Z,-0.87
2023-10-17T04:05:40.128Z,-0.86
2023-10-17T04:06:42.462Z,-0.84
2023-10-17T04:07:44.007Z,-0.82
2023-10-17T04:08:57.862Z,-0.80
2023-10-17T04:10:01.931Z,-0.76
2023-10-17T04:11:21.964Z,-0.75
2023-10-17T04:12:32.934Z,-0.70
2023-10-17T04:13:38.951Z,-0.67
2023-10-17T04:14:52.126Z,-0.67
2023-10-17T04:15:56.013Z,-0.63
2023-10-17T04:16:57.886Z,-0.60
2023-10-17T04:18:03.287Z,-0.58
2023-10-17T04:19:21.764Z,-0.56
2023-10-17T04:20:24.085Z,-0.54
2023-10-17T04:21:31.013Z,-0.54
2023-10-17T04:22:32.580Z,-0.53
2023-10-17T04:23:34.083Z,-0.53
2023-10-17T04:24:36.012Z,-0.50
2023-10-17T04:25:39.687Z,-0.51
2023-10-17T04:26:47.296Z,-0.51
2023-10-17T04:27:56.044Z,-0.55
2023-10-17T04:29:02.141Z,-0.56
2023-10-17T04:30:10.659Z,-0.58
2023-10-17T04:31:12.223Z,-0.57
2023-10-17T04:32:16.538Z,-0.56
2023-10-17T04:33:21.531Z,-0.56
2023-10-17T04:34:23.274Z,-0.57
2023-10-17T04:35:24.802Z,-0.59
2023-10-17T04:36:29.566Z,-0.57
2023-10-17T04:37:34.952Z,-0.52
2023-10-17T04:38:36.412Z,-0.50
2023-10-17T04:39:38.560Z,-0.46
2023-10-17T04:40:44.777Z,-0.47
2023-10-17T04:41:52.736Z,-0.46
2023-10-17T04:42:54.212Z,-0.47
2023-10-17T04:43:56.212Z,-0.48
2023-10-17T04:45:06.907Z,-0.45
2023-10-17T04:46:09.852Z,-0.46
2023-10-17T04:47:29.302Z,-0.43
2023-10-17T04:48:33.758Z,-0.44
2023-10-17T04:49:37.298Z,-0.44
2023-10-17T04:50:57.683Z,-0.44
2023-10-17T04:52:05.816Z,-0.42
2023-10-17T04:53:07.303Z,-0.40
2023-10-17T04:54:35.197Z,-0.39
2023-10-17T04:55:41.961Z,-0.43
2023-10-17T04:56:54.310Z,-0.42
2023-10-17T04:57:55.801Z,-0.39
2023-10-17T04:58:57.562Z,-0.35
2023-10-17T05:00:11.613Z,-0.34
2023-10-17T05:01:54.459Z,-0.32
2023-10-17T05:03:07.470Z,-0.29
2023-10-17T05:04:20.494Z,-0.31
2023-10-17T05:05:40.805Z,-0.26
2023-10-17T05:07:05.326Z,-0.26
2023-10-17T05:08:19.373Z,-0.27
2023-10-17T05:09:21.696Z,-0.26
2023-10-17T05:10:23.256Z,-0.27
2023-10-17T05:11:43.879Z,-0.28
2023-10-17T05:13:04.391Z,-0.28
2023-10-17T05:14:24.217Z,-0.27
2023-10-17T05:15:44.045Z,-0.28
2023-10-17T05:17:05.437Z,-0.25
2023-10-17T05:18:25.667Z,-0.23
2023-10-17T05:19:45.986Z,-0.22
2023-10-17T05:21:06.289Z,-0.21
2023-10-17T05:22:26.215Z,-0.19
2023-10-17T05:23:46.047Z,-0.20
2023-10-17T05:25:05.905Z,-0.19
2023-10-17T05:26:26.939Z,-0.16
2023-10-17T05:27:46.910Z,-0.15
2023-10-17T05:29:13.044Z,-0.14
2023-10-17T05:30:33.643Z,-0.14
2023-10-17T05:31:53.831Z,-0.16
2023-10-17T05:33:13.881Z,-0.14
2023-10-17T05:34:34.051Z,-0.08
2023-10-17T05:36:04.576Z,-0.07
2023-10-17T05:37:24.707Z,-0.01
2023-10-17T05:38:44.710Z,0.02
2023-10-17T05:40:04.747Z,0.01
2023-10-17T05:41:24.607Z,0.08
2023-10-17T05:42:44.344Z,0.13
2023-10-17T05:44:04.304Z,0.13
2023-10-17T05:45:25.072Z,0.13
2023-10-17T05:46:45.261Z,0.16
2023-10-17T05:48:06.902Z,0.17
2023-10-17T05:49:26.900Z,0.20
2023-10-17T05:50:46.691Z,0.28
2023-10-17T05:52:06.723Z,0.33
2023-10-17T05:53:26.491Z,0.42
2023-10-17T05:56:13.688Z,0.47
2023-10-17T05:57:33.927Z,0.50
2023-10-17T05:58:53.763Z,0.54
2023-10-17T06:00:13.920Z,0.58
2023-10-17T06:01:33.793Z,0.57
2023-10-17T06:02:53.771Z,0.63
2023-10-17T06:04:13.805Z,0.67
2023-10-17T06:05:33.946Z,0.74
2023-10-17T06:06:53.842Z,0.76
2023-10-17T06:08:13.806Z,0.79
2023-10-17T06:09:33.687Z,0.83
2023-10-17T06:10:53.714Z,0.86
2023-10-17T06:12:13.849Z,0.91
2023-10-17T06:13:33.995Z,1.03
2023-10-17T06:14:53.921Z,1.07
2023-10-17T06:16:13.929Z,1.04
2023-10-17T06:17:34.728Z,1.11
2023-10-17T06:18:41.506Z,1.07
2023-10-17T06:19:43.410Z,1.04
2023-10-17T06:21:23.091Z,1.14
2023-10-17T06:22:27.420Z,1.15
2023-10-17T06:23:37.951Z,1.15
2023-10-17T06:24:45.209Z,1.17
2023-10-17T06:25:49.528Z,1.31
2023-10-17T06:27:01.131Z,1.33
2023-10-17T06:28:21.223Z,1.29
2023-10-17T06:29:22.671Z,1.30
2023-10-17T06:30:30.645Z,1.27
2023-10-17T06:31:44.417Z,1.31
2023-10-17T06:33:08.810Z,1.35
2023-10-17T06:34:10.274Z,1.41
2023-10-17T06:35:21.794Z,1.43
2023-10-17T06:36:26.966Z,1.44
2023-10-17T06:37:33.894Z,1.44
2023-10-17T06:38:46.437Z,1.43
2023-10-17T06:39:48.482Z,1.49
2023-10-17T06:40:54.326Z,1.54
2023-10-17T06:42:10.536Z,1.58
2023-10-17T06:43:16.531Z,1.64
2023-10-17T06:44:24.554Z,1.70
2023-10-17T06:45:28.127Z,1.78
2023-10-17T06:46:40.865Z,1.84
2023-10-17T06:47:43.172Z,1.91
2023-10-17T06:48:51.224Z,1.99
2023-10-17T06:50:04.787Z,2.03
2023-10-17T06:51:21.957Z,2.12
2023-10-17T06:52:24.910Z,2.23
2023-10-17T06:53:29.320Z,2.30
2023-10-17T06:54:32.689Z,2.35
2023-10-17T06:55:43.912Z,2.42
2023-10-17T06:56:45.952Z,2.48
2023-10-17T06:57:51.647Z,2.53
2023-10-17T06:59:04.961Z,2.55
2023-10-17T07:00:25.901Z,2.50
2023-10-17T07:01:28.435Z,2.54
2023-10-17T07:02:30.273Z,2.59
2023-10-17T07:03:38.884Z,2.34
2023-10-17T07:04:44.215Z,2.37
2023-10-17T07:05:52.823Z,2.36
2023-10-17T07:06:55.700Z,2.33
2023-10-17T07:08:00.953Z,2.38
2023-10-17T07:09:06.298Z,2.37
2023-10-17T07:10:18.574Z,2.39
2023-10-17T07:11:20.894Z,2.45
2023-10-17T07:12:22.605Z,2.54
2023-10-17T07:13:57.764Z,2.62
2023-10-17T07:14:59.184Z,2.71
2023-10-17T07:16:05.803Z,2.79
2023-10-17T07:17:26.689Z,2.86
2023-10-17T07:18:43.363Z,2.97
2023-10-17T07:19:48.205Z,3.01
2023-10-17T07:21:08.239Z,3.08
2023-10-17T07:22:12.632Z,3.17
2023-10-17T07:23:16.670Z,3.25
2023-10-17T07:24:18.188Z,3.34
2023-10-17T07:25:20.862Z,3.34
2023-10-17T07:26:39.293Z,3.26
2023-10-17T07:27:40.798Z,3.30
2023-10-17T07:28:45.065Z,3.37
2023-10-17T07:29:53.524Z,3.44
2023-10-17T07:31:02.149Z,3.48
2023-10-17T07:32:10.770Z,3.60
2023-10-17T07:33:18.325Z,3.74
2023-10-17T07:34:24.523Z,3.87
2023-10-17T07:35:26.704Z,3.91
2023-10-17T07:36:28.852Z,3.88
2023-10-17T07:37:35.363Z,3.92
2023-10-17T07:38:39.593Z,3.97
2023-10-17T07:39:41.313Z,4.05
2023-10-17T07:40:53.385Z,4.12
2023-10-17T07:41:54.902Z,4.18
2023-10-17T07:42:57.042Z,4.29
2023-10-17T07:44:01.115Z,4.38
2023-10-17T07:45:05.719Z,4.21
2023-10-17T07:46:08.049Z,4.26
2023-10-17T07:47:10.482Z,4.15
2023-10-17T07:48:21.993Z,4.19
2023-10-17T07:49:28.080Z,4.20
2023-10-17T07:50:30.362Z,4.24
2023-10-17T07:51:32.113Z,4.33
2023-10-17T07:52:33.640Z,4.41
2023-10-17T07:53:35.497Z,4.51
2023-10-17T07:54:39.800Z,4.62
2023-10-17T07:55:47.485Z,4.71
2023-10-17T07:56:53.016Z,4.82
2023-10-17T07:57:54.746Z,4.94
2023-10-17T07:58:58.931Z,4.99
2023-10-17T08:00:00.370Z,5.24
2023-10-17T08:01:04.453Z,5.26
2023-10-17T08:02:20.004Z,5.18
2023-10-17T08:03:21.746Z,5.38
2023-10-17T08:04:31.286Z,5.44
2023-10-17T08:05:45.952Z,5.62
2023-10-17T08:06:47.662Z,5.71
2023-10-17T08:07:50.625Z,5.38
2023-10-17T08:08:53.293Z,5.52
2023-10-17T08:09:57.782Z,5.65
2023-10-17T08:10:59.336Z,5.75
2023-10-17T08:12:03.374Z,5.88
2023-10-17T08:13:05.021Z,5.95
2023-10-17T08:14:12.849Z,6.04
2023-10-17T08:15:20.824Z,5.96
2023-10-17T08:16:26.366Z,6.07
2023-10-17T08:17:36.180Z,5.95
2023-10-17T08:18:44.041Z,6.01
2023-10-17T08:20:04.003Z,6.04
2023-10-17T08:21:20.411Z,6.10
2023-10-17T08:22:26.535Z,6.21
2023-10-17T08:23:28.138Z,6.13
2023-10-17T08:24:41.875Z,6.42
2023-10-17T08:25:56.118Z,6.63
2023-10-17T08:27:15.843Z,6.75
2023-10-17T08:28:32.818Z,6.89
2023-10-17T08:29:35.600Z,6.80
2023-10-17T08:30:46.278Z,7.05
2023-10-17T08:31:48.433Z,7.05
2023-10-17T08:33:05.217Z,7.15
2023-10-17T08:34:16.914Z,7.43
2023-10-17T08:35:21.856Z,7.56
2023-10-17T08:36:43.084Z,7.54
2023-10-17T08:37:44.960Z,7.71
2023-10-17T08:38:48.585Z,7.57
2023-10-17T08:39:50.017Z,7.71
2023-10-17T08:40:55.449Z,7.46
2023-10-17T08:42:00.982Z,7.54
2023-10-17T08:43:15.905Z,7.31
2023-10-17T08:44:20.205Z,7.37
2023-10-17T08:45:25.001Z,7.35
2023-10-17T08:46:27.122Z,7.22
2023-10-17T08:47:31.765Z,7.37
2023-10-17T08:48:34.028Z,7.61
2023-10-17T08:49:35.973Z,7.70
2023-10-17T08:50:41.004Z,7.71
2023-10-17T08:51:42.595Z,7.44
2023-10-17T08:52:45.246Z,7.57
2023-10-17T08:53:46.791Z,7.60
2023-10-17T08:54:48.916Z,7.17
2023-10-17T08:55:51.923Z,7.12
2023-10-17T08:56:53.832Z,7.26
2023-10-17T08:57:55.304Z,7.46
2023-10-17T08:59:04.712Z,7.29
2023-10-17T09:00:09.801Z,7.29
2023-10-17T09:01:19.042Z,7.23
2023-10-17T09:02:29.708Z,7.43
2023-10-17T09:03:37.433Z,7.48
2023-10-17T09:04:39.545Z,7.58
2023-10-17T09:06:26.806Z,7.62
2023-10-17T09:07:42.650Z,7.52
2023-10-17T09:08:46.834Z,7.57
2023-10-17T09:09:48.544Z,7.66
2023-10-17T09:11:08.710Z,7.90
2023-10-17T09:12:36.307Z,7.88
2023-10-17T09:13:46.511Z,7.92
2023-10-17T09:14:50.792Z,8.06
2023-10-17T09:15:58.700Z,8.12
2023-10-17T09:17:25.574Z,8.32
2023-10-17T09:18:29.560Z,8.51
2023-10-17T09:19:47.639Z,8.70
2023-10-17T09:20:51.195Z,8.54
2023-10-17T09:21:52.811Z,8.39
2023-10-17T09:22:55.269Z,8.39
2023-10-17T09:23:58.320Z,8.46
2023-10-17T09:25:01.023Z,8.83
2023-10-17T09:26:08.872Z,8.98
2023-10-17T09:27:16.764Z,8.89
2023-10-17T09:28:20.684Z,9.07
2023-10-17T09:29:22.218Z,8.91
2023-10-17T09:30:27.944Z,9.17
2023-10-17T09:31:30.348Z,9.09
2023-10-17T09:32:37.520Z,9.05
2023-10-17T09:33:47.058Z,8.84
2023-10-17T09:34:51.101Z,9.05
2023-10-17T09:35:52.905Z,9.31
2023-10-17T09:38:08.828Z,9.45
2023-10-17T09:39:28.331Z,9.68
2023-10-17T09:40:41.222Z,9.56
2023-10-17T09:41:50.409Z,9.56
2023-10-17T09:42:51.968Z,9.64
2023-10-17T09:43:54.217Z,9.66
2023-10-17T09:44:57.559Z,9.73
2023-10-17T09:46:06.204Z,9.54
2023-10-17T09:47:09.677Z,9.71
2023-10-17T09:48:14.920Z,10.00
2023-10-17T09:49:22.113Z,10.16
2023-10-17T09:50:25.894Z,9.93
2023-10-17T09:51:34.977Z,9.93
2023-10-17T09:52:38.360Z,10.10
2023-10-17T09:53:41.372Z,9.82
2023-10-17T09:54:45.059Z,9.65
2023-10-17T09:55:51.588Z,9.90
2023-10-17T09:56:55.013Z,10.10
2023-10-17T09:58:09.155Z,9.99
2023-10-17T09:59:14.190Z,9.97
2023-10-17T10:00:42.214Z,9.90
2023-10-17T10:01:50.492Z,10.59
2023-10-17T10:03:04.698Z,10.86
2023-10-17T10:04:14.819Z,10.47
2023-10-17T10:05:20.378Z,10.42
2023-10-17T10:06:23.265Z,10.39
2023-10-17T10:07:25.144Z,10.72
2023-10-17T10:08:34.389Z,10.95
2023-10-17T10:09:38.772Z,10.78
2023-10-17T10:10:43.192Z,10.59
2023-10-17T10:11:54.994Z,10.59
2023-10-17T10:13:07.251Z,10.20
2023-10-17T10:14:09.763Z,10.26
2023-10-17T10:15:50.339Z,10.42
2023-10-17T10:16:57.568Z,10.52
2023-10-17T10:17:59.541Z,10.59
2023-10-17T10:19:01.059Z,10.64
2023-10-17T10:20:03.235Z,10.59
2023-10-17T10:21:05.642Z,10.54
2023-10-17T10:22:08.538Z,10.20
2023-10-17T10:23:10.342Z,10.02
2023-10-17T10:24:19.833Z,10.15
2023-10-17T10:25:23.410Z,10.28
2023-10-17T10:26:26.128Z,10.51
2023-10-17T10:27:28.262Z,10.89
2023-10-17T10:28:30.757Z,11.01
2023-10-17T10:29:32.515Z,11.05
2023-10-17T10:30:38.026Z,11.33
2023-10-17T10:31:39.956Z,11.59
2023-10-17T10:32:45.161Z,11.70
2023-10-17T10:33:49.349Z,11.67
2023-10-17T10:34:51.691Z,12.02
2023-10-17T10:35:53.535Z,12.07
2023-10-17T10:36:57.412Z,12.11
2023-10-17T10:38:01.005Z,12.30
2023-10-17T10:39:19.732Z,12.07
2023-10-17T10:40:26.130Z,12.21
2023-10-17T10:41:28.984Z,11.98
2023-10-17T10:42:45.417Z,12.14
2023-10-17T10:43:48.041Z,12.15
2023-10-17T10:44:50.517Z,12.28
2023-10-17T10:45:53.502Z,12.28
2023-10-17T10:46:55.779Z,12.15
2023-10-17T10:48:00.266Z,12.10
2023-10-17T10:49:02.679Z,11.97
2023-10-17T10:50:06.811Z,11.60
2023-10-17T10:51:15.038Z,11.83
2023-10-17T10:52:24.399Z,11.96
2023-10-17T10:53:30.576Z,12.29
2023-10-17T10:54:55.452Z,12.65
2023-10-17T10:55:58.514Z,12.87
2023-10-17T10:57:00.010Z,12.41
2023-10-17T10:58:02.652Z,12.39
2023-10-17T10:59:06.089Z,12.79
2023-10-17T11:00:11.477Z,12.83
2023-10-17T11:01:14.125Z,13.25
2023-10-17T11:02:15.995Z,13.38
2023-10-17T11:03:20.682Z,13.61
2023-10-17T11:04:22.420Z,13.28
2023-10-17T11:05:25.005Z,12.92
2023-10-17T11:06:30.422Z,13.03
2023-10-17T11:07:34.872Z,13.16
2023-10-17T11:08:49.174Z,13.13
2023-10-17T11:10:08.289Z,12.97
2023-10-17T11:11:20.825Z,13.09
2023-10-17T11:12:22.860Z,13.23
2023-10-17T11:13:31.726Z,12.64
2023-10-17T11:14:33.468Z,12.64
2023-10-17T11:15:35.852Z,12.49
2023-10-17T11:16:38.767Z,12.51
2023-10-17T11:17:40.672Z,12.65
2023-10-17T11:18:45.409Z,12.80
2023-10-17T11:19:47.267Z,12.99
2023-10-17T11:20:55.297Z,13.15
2023-10-17T11:22:03.846Z,13.17
2023-10-17T11:23:09.593Z,13.01
2023-10-17T11:24:11.348Z,13.06
2023-10-17T11:25:22.451Z,12.87
2023-10-17T11:26:29.463Z,12.63
2023-10-17T11:27:33.997Z,12.45
2023-10-17T11:28:37.188Z,12.37
2023-10-17T11:29:39.592Z,12.10
2023-10-17T11:30:42.346Z,12.05
2023-10-17T11:31:44.617Z,12.17
2023-10-17T11:32:46.814Z,12.29
2023-10-17T11:33:57.361Z,12.22
2023-10-17T11:35:07.049Z,12.23
2023-10-17T11:36:14.766Z,12.26
2023-10-17T11:37:20.696Z,12.38
2023-10-17T11:38:30.428Z,12.24
2023-10-17T11:39:41.227Z,12.15
2023-10-17T11:40:46.258Z,12.02
2023-10-17T11:41:56.209Z,11.96
2023-10-17T11:43:00.094Z,11.85
2023-10-17T11:44:05.855Z,11.89
2023-10-17T11:45:34.429Z,11.85
2023-10-17T11:46:38.892Z,11.88
2023-10-17T11:47:42.154Z,12.09
2023-10-17T11:48:46.666Z,12.13
2023-10-17T11:49:50.724Z,12.21
2023-10-17T11:51:19.322Z,12.22
2023-10-17T11:52:22.101Z,12.21
2023-10-17T11:53:24.856Z,12.04
2023-10-17T11:55:41.534Z,11.87
2023-10-17T11:56:43.143Z,11.98
2023-10-17T11:57:51.333Z,11.93
2023-10-17T11:58:53.382Z,11.95
2023-10-17T12:00:18.928Z,12.02
2023-10-17T12:01:20.892Z,11.72
2023-10-17T12:02:22.788Z,11.78
2023-10-17T12:03:27.362Z,11.82
2023-10-17T12:04:29.326Z,11.77
2023-10-17T12:05:33.189Z,11.83
2023-10-17T12:06:35.972Z,11.65
2023-10-17T12:07:43.637Z,11.64
2023-10-17T12:08:45.572Z,11.71
2023-10-17T12:09:47.454Z,11.44
2023-10-17T12:10:54.487Z,11.51
2023-10-17T12:11:56.703Z,11.33
2023-10-17T12:13:00.377Z,11.44
2023-10-17T12:14:02.227Z,11.50
2023-10-17T12:15:06.141Z,11.43
2023-10-17T12:16:10.390Z,11.47
2023-10-17T12:17:15.039Z,11.46
2023-10-17T12:18:16.565Z,11.26
2023-10-17T12:19:18.260Z,11.24
2023-10-17T12:20:27.233Z,11.36
2023-10-17T12:21:29.501Z,11.17
2023-10-17T12:22:33.078Z,11.13
2023-10-17T12:23:34.550Z,11.09
2023-10-17T12:24:36.234Z,11.01
2023-10-17T12:25:38.445Z,11.04
2023-10-17T12:26:43.144Z,11.14
2023-10-17T12:27:51.016Z,11.31
2023-10-17T12:28:57.782Z,11.31
2023-10-17T12:29:59.594Z,11.21
2023-10-17T12:31:01.613Z,10.90
2023-10-17T12:32:03.259Z,11.35
2023-10-17T12:33:08.354Z,11.21
2023-10-17T12:34:10.065Z,11.38
2023-10-17T12:35:14.096Z,11.49
2023-10-17T12:36:15.700Z,11.58
2023-10-17T12:37:18.621Z,11.55
2023-10-17T12:38:26.587Z,11.60
2023-10-17T12:39:32.740Z,11.71
2023-10-17T12:40:34.343Z,11.62
2023-10-17T12:41:36.346Z,11.54
2023-10-17T12:42:37.814Z,11.57
2023-10-17T12:43:40.927Z,11.31
2023-10-17T12:44:42.662Z,11.26
2023-10-17T12:45:45.416Z,11.15
2023-10-17T12:46:48.154Z,11.15
2023-10-17T12:47:49.975Z,11.45
2023-10-17T12:48:51.879Z,11.50
2023-10-17T12:49:54.961Z,11.67
2023-10-17T12:50:58.898Z,11.78
2023-10-17T12:52:01.923Z,11.64
2023-10-17T12:53:03.856Z,11.83
2023-10-17T12:54:07.373Z,11.82
2023-10-17T12:55:09.218Z,11.43
2023-10-17T12:56:14.169Z,11.43
2023-10-17T12:57:15.710Z,11.19
2023-10-17T12:58:20.172Z,11.49
2023-10-17T12:59:21.740Z,11.73
2023-10-17T13:00:27.236Z,11.76
2023-10-17T13:01:29.289Z,11.54
2023-10-17T13:02:30.836Z,11.73
2023-10-17T13:03:39.086Z,11.73
2023-10-17T13:04:42.541Z,11.67
2023-10-17T13:05:45.952Z,11.61
2023-10-17T13:06:49.419Z,11.77
2023-10-17T13:07:51.123Z,11.42
2023-10-17T13:08:58.714Z,11.38
2023-10-17T13:10:00.591Z,11.30
2023-10-17T13:11:04.596Z,11.51
2023-10-17T13:12:06.196Z,11.55
2023-10-17T13:13:07.647Z,11.65
2023-10-17T13:14:09.127Z,11.81
2023-10-17T13:15:16.052Z,11.83
2023-10-17T13:16:17.664Z,11.71
2023-10-17T13:17:20.066Z,11.77
2023-10-17T13:18:21.621Z,12.01
2023-10-17T13:19:23.157Z,12.00
2023-10-17T13:20:41.053Z,12.15
2023-10-17T13:21:52.853Z,11.86
2023-10-17T13:22:54.313Z,11.43
2023-10-17T13:23:59.700Z,11.48
2023-10-17T13:25:01.501Z,11.61
2023-10-17T13:26:06.458Z,11.62
2023-10-17T13:27:19.433Z,11.55
2023-10-17T13:28:22.901Z,11.52
2023-10-17T13:29:24.411Z,11.49
2023-10-17T13:30:27.848Z,11.57
2023-10-17T13:31:30.033Z,11.68
2023-10-17T13:32:32.817Z,11.71
2023-10-17T13:33:34.320Z,11.74
2023-10-17T13:34:38.612Z,11.80
2023-10-17T13:35:42.040Z,11.83
2023-10-17T13:36:43.842Z,11.91
2023-10-17T13:37:52.467Z,12.06
2023-10-17T13:38:54.205Z,12.06
2023-10-17T13:39:59.442Z,12.02
2023-10-17T13:41:10.595Z,12.01
2023-10-17T13:42:12.152Z,12.16
2023-10-17T13:43:14.488Z,11.95
2023-10-17T13:44:16.495Z,11.70
2023-10-17T13:45:18.967Z,11.61
2023-10-17T13:46:20.640Z,11.69
2023-10-17T13:47:22.401Z,11.86
2023-10-17T13:48:24.105Z,11.82
2023-10-17T13:49:27.741Z,11.74
2023-10-17T13:50:31.447Z,11.61
2023-10-17T13:51:35.994Z,11.62
2023-10-17T13:52:37.648Z,11.67
2023-10-17T13:53:41.322Z,11.71
2023-10-17T13:54:42.875Z,11.75
2023-10-17T13:55:44.356Z,11.76
2023-10-17T13:56:45.848Z,11.87
2023-10-17T13:57:47.860Z,11.90
2023-10-17T13:58:50.251Z,12.07
2023-10-17T13:59:54.265Z,12.18
2023-10-17T14:00:55.904Z,12.42
2023-10-17T14:01:57.442Z,12.59
2023-10-17T14:02:58.987Z,12.74
2023-10-17T14:04:05.119Z,12.92
2023-10-17T14:05:06.952Z,13.03
2023-10-17T14:06:08.676Z,12.98
2023-10-17T14:07:12.768Z,12.87
2023-10-17T14:08:19.338Z,12.87
2023-10-17T14:09:24.417Z,12.96
2023-10-17T14:10:26.091Z,13.08
2023-10-17T14:11:27.658Z,13.12
2023-10-17T14:12:29.235Z,12.85
2023-10-17T14:13:31.063Z,12.76
2023-10-17T14:14:32.537Z,12.96
2023-10-17T14:15:33.989Z,12.80
2023-10-17T14:16:41.541Z,12.69
2023-10-17T14:17:46.896Z,12.52
2023-10-17T14:18:53.890Z,12.23
2023-10-17T14:20:06.392Z,12.22
2023-10-17T14:21:26.591Z,12.18
2023-10-17T14:22:40.270Z,12.08
2023-10-17T14:23:58.962Z,12.07
2023-10-17T14:25:00.869Z,11.93
2023-10-17T14:26:04.517Z,11.77
2023-10-17T14:27:13.101Z,11.67
2023-10-17T14:28:14.621Z,11.62
2023-10-17T14:29:16.119Z,11.69
2023-10-17T14:30:17.869Z,11.60
2023-10-17T14:31:19.799Z,11.55
2023-10-17T14:32:22.494Z,11.40